createdAt,value
2022-12-25T00:00:41.833Z,82.12
2022-12-25T00:03:08.709Z,81.97
2022-12-25T00:05:38.774Z,82.00
2022-12-25T00:08:06.608Z,82.09
2022-12-25T00:10:33.701Z,82.15
2022-12-25T00:13:00.219Z,81.78
2022-12-25T00:15:26.790Z,81.53
2022-12-25T00:17:53.303Z,81.28
2022-12-25T00:20:19.789Z,81.55
2022-12-25T00:22:46.449Z,81.34
2022-12-25T00:25:12.950Z,80.93
2022-12-25T00:27:39.443Z,81.04
2022-12-25T00:30:07.888Z,81.47
2022-12-25T00:32:37.577Z,81.34
2022-12-25T00:35:05.140Z,81.39
2022-12-25T00:37:31.666Z,81.47
2022-12-25T00:39:58.156Z,81.10
2022-12-25T00:42:26.887Z,81.31
2022-12-25T00:44:53.455Z,81.46
2022-12-25T00:47:20.028Z,82.36
2022-12-25T00:49:46.759Z,82.47
2022-12-25T00:52:13.314Z,82.00
2022-12-25T00:54:39.851Z,81.96
2022-12-25T00:57:06.374Z,81.45
2022-12-25T00:59:34.119Z,81.86
2022-12-25T01:02:21.390Z,81.41
2022-12-25T01:04:48.383Z,81.90
2022-12-25T01:07:16.869Z,81.79
2022-12-25T01:10:03.157Z,82.09
2022-12-25T01:12:30.546Z,82.03
2022-12-25T01:14:57.097Z,82.01
2022-12-25T01:17:23.641Z,82.29
2022-12-25T01:19:50.302Z,82.11
2022-12-25T01:22:16.823Z,82.52
2022-12-25T01:24:44.419Z,82.47
2022-12-25T01:27:11.624Z,82.54
2022-12-25T01:29:38.634Z,82.39
2022-12-25T01:32:06.160Z,82.60
2022-12-25T01:34:32.759Z,82.86
2022-12-25T01:36:59.300Z,82.61
2022-12-25T01:39:26.878Z,82.49
2022-12-25T01:41:53.370Z,82.41
2022-12-25T01:44:19.895Z,81.97
2022-12-25T01:46:46.377Z,82.18
2022-12-25T01:49:22.482Z,82.48
2022-12-25T01:52:00.672Z,82.45
2022-12-25T01:54:35.080Z,82.28
2022-12-25T01:57:06.596Z,82.11
2022-12-25T01:59:33.246Z,82.55
2022-12-25T02:02:00.339Z,83.00
2022-12-25T02:04:38.741Z,83.48
2022-12-25T02:07:16.840Z,83.55
2022-12-25T02:09:44.815Z,83.52
2022-12-25T02:12:18.429Z,83.18
2022-12-25T02:14:45.406Z,82.43
2022-12-25T02:17:27.373Z,82.31
2022-12-25T02:20:03.783Z,82.46
2022-12-25T02:22:39.534Z,82.32
2022-12-25T02:25:32.058Z,82.67
2022-12-25T02:27:58.486Z,83.10
2022-12-25T02:30:25.363Z,83.50
2022-12-25T02:33:20.361Z,83.14
2022-12-25T02:35:51.909Z,82.90
2022-12-25T02:38:33.050Z,83.50
2022-12-25T02:41:09.838Z,83.24
2022-12-25T02:44:01.650Z,83.23
2022-12-25T02:46:48.560Z,83.27
2022-12-25T02:49:41.826Z,82.56
2022-12-25T02:52:42.351Z,82.97
2022-12-25T02:55:34.749Z,82.80
2022-12-25T02:58:25.573Z,82.93
2022-12-25T03:01:23.394Z,83.23
2022-12-25T03:04:13.323Z,83.88
2022-12-25T03:06:46.395Z,83.76
2022-12-25T03:09:40.127Z,83.66
2022-12-25T03:12:48.455Z,83.43
2022-12-25T03:15:36.095Z,83.60
2022-12-25T03:18:06.895Z,83.23
2022-12-25T03:20:52.365Z,82.89
2022-12-25T03:23:40.227Z,83.08
2022-12-25T03:26:26.627Z,83.36
2022-12-25T03:28:55.528Z,84.09
2022-12-25T03:31:26.512Z,83.82
2022-12-25T03:34:45.666Z,83.36
2022-12-25T03:37:36.594Z,83.27
2022-12-25T03:41:12.895Z,82.94
2022-12-25T03:44:11.767Z,83.56
2022-12-25T03:47:14.773Z,84.67
2022-12-25T03:50:23.270Z,84.37
2022-12-25T03:53:11.333Z,83.90
2022-12-25T03:55:59.704Z,83.71
2022-12-25T03:58:46.273Z,84.24
2022-12-25T04:01:32.700Z,84.00
2022-12-25T04:04:17.912Z,83.79
2022-12-25T04:07:02.960Z,83.59
2022-12-25T04:09:48.096Z,83.79
2022-12-25T04:12:33.299Z,83.46
2022-12-25T04:15:18.250Z,83.44
2022-12-25T04:18:03.170Z,83.15
2022-12-25T04:20:48.166Z,83.67
2022-12-25T04:23:32.925Z,83.95
2022-12-25T04:26:18.402Z,83.57
2022-12-25T04:29:03.821Z,83.60
2022-12-25T04:31:48.662Z,83.36
2022-12-25T04:34:33.992Z,83.56
2022-12-25T04:37:00.539Z,83.33
2022-12-25T04:39:27.054Z,83.31
2022-12-25T04:41:53.593Z,83.21
2022-12-25T04:44:20.085Z,83.02
2022-12-25T04:46:46.717Z,83.24
2022-12-25T04:49:15.364Z,83.02
2022-12-25T04:51:41.946Z,83.41
2022-12-25T04:54:08.529Z,83.18
2022-12-25T04:56:40.065Z,82.83
2022-12-25T04:59:10.153Z,83.11
2022-12-25T05:01:36.772Z,83.63
2022-12-25T05:04:03.440Z,83.50
2022-12-25T05:06:30.010Z,83.38
2022-12-25T05:08:56.528Z,83.13
2022-12-25T05:11:23.177Z,83.34
2022-12-25T05:13:49.786Z,83.15
2022-12-25T05:16:19.785Z,83.07
2022-12-25T05:18:49.342Z,83.32
2022-12-25T05:21:15.891Z,83.42
2022-12-25T05:23:48.738Z,83.43
2022-12-25T05:26:18.240Z,83.39
2022-12-25T05:28:44.930Z,83.20
2022-12-25T05:31:11.640Z,83.71
2022-12-25T05:33:38.234Z,83.57
2022-12-25T05:36:07.180Z,83.43
2022-12-25T05:38:34.073Z,83.57
2022-12-25T05:41:01.284Z,83.60
2022-12-25T05:43:28.549Z,83.63
2022-12-25T05:45:55.163Z,83.41
2022-12-25T05:48:21.671Z,83.63
2022-12-25T05:50:48.269Z,84.07
2022-12-25T05:53:17.278Z,83.96
2022-12-25T05:55:43.791Z,83.61
2022-12-25T05:58:11.858Z,83.37
2022-12-25T06:00:39.055Z,83.38
2022-12-25T06:03:05.707Z,83.24
2022-12-25T06:05:32.615Z,83.21
2022-12-25T06:07:59.124Z,83.71
2022-12-25T06:10:25.657Z,83.59
2022-12-25T06:12:52.133Z,83.30
2022-12-25T06:15:18.721Z,83.65
2022-12-25T06:17:45.297Z,82.81
2022-12-25T06:20:11.862Z,83.22
2022-12-25T06:22:38.360Z,83.51
2022-12-25T06:25:05.322Z,83.87
2022-12-25T06:27:31.833Z,83.57
2022-12-25T06:29:58.404Z,83.65
2022-12-25T06:32:24.908Z,83.46
2022-12-25T06:34:51.488Z,83.53
2022-12-25T06:37:18.031Z,84.09
2022-12-25T06:39:44.571Z,84.20
2022-12-25T06:42:11.064Z,83.81
2022-12-25T06:44:38.071Z,83.90
2022-12-25T06:47:04.694Z,83.97
2022-12-25T06:49:31.279Z,83.83
2022-12-25T06:51:57.812Z,83.85
2022-12-25T06:54:24.362Z,83.66
2022-12-25T06:56:51.128Z,83.80
2022-12-25T06:59:17.669Z,83.70
2022-12-25T07:01:53.540Z,83.49
2022-12-25T07:04:22.998Z,83.38
2022-12-25T07:06:49.481Z,83.92
2022-12-25T07:09:16.052Z,83.67
2022-12-25T07:11:43.635Z,83.67
2022-12-25T07:14:23.743Z,83.72
2022-12-25T07:16:51.614Z,83.85
2022-12-25T07:19:19.184Z,83.62
2022-12-25T07:21:46.144Z,83.90
2022-12-25T07:24:18.364Z,83.74
2022-12-25T07:26:44.905Z,83.93
2022-12-25T07:29:11.482Z,83.82
2022-12-25T07:31:38.040Z,83.88
2022-12-25T07:34:04.605Z,84.04
2022-12-25T07:36:31.197Z,83.61
2022-12-25T07:38:57.734Z,84.04
2022-12-25T07:41:24.440Z,84.33
2022-12-25T07:43:58.326Z,84.53
2022-12-25T07:46:25.005Z,84.50
2022-12-25T07:48:51.878Z,83.99
2022-12-25T07:51:18.398Z,83.81
2022-12-25T07:53:45.222Z,84.23
2022-12-25T07:56:14.447Z,83.91
2022-12-25T07:58:41.744Z,83.55
2022-12-25T08:01:14.893Z,83.68
2022-12-25T08:03:41.658Z,83.83
2022-12-25T08:06:09.686Z,83.75
2022-12-25T08:08:37.519Z,83.71
2022-12-25T08:11:04.471Z,83.76
2022-12-25T08:13:31.815Z,83.82
2022-12-25T08:16:00.468Z,83.82
2022-12-25T08:18:30.091Z,84.10
2022-12-25T08:20:57.514Z,83.82
2022-12-25T08:23:24.084Z,83.91
2022-12-25T08:25:50.583Z,83.39
2022-12-25T08:28:17.056Z,83.60
2022-12-25T08:30:43.620Z,83.01
2022-12-25T08:33:10.223Z,83.59
2022-12-25T08:35:36.957Z,83.78
2022-12-25T08:38:03.449Z,84.22
2022-12-25T08:40:30.012Z,83.47
2022-12-25T08:42:57.205Z,84.16
2022-12-25T08:45:24.998Z,84.55
2022-12-25T08:47:55.545Z,84.42
2022-12-25T08:50:23.106Z,82.99
2022-12-25T08:52:50.293Z,82.46
2022-12-25T08:55:16.863Z,84.25
2022-12-25T08:57:43.684Z,82.89
2022-12-25T09:00:10.679Z,82.07
2022-12-25T09:02:37.366Z,82.61
2022-12-25T09:05:04.226Z,81.51
2022-12-25T09:07:30.726Z,80.65
2022-12-25T09:09:57.277Z,80.92
2022-12-25T09:12:23.981Z,81.49
2022-12-25T09:14:50.552Z,81.35
2022-12-25T09:17:17.064Z,81.01
2022-12-25T09:19:43.793Z,80.65
2022-12-25T09:22:10.344Z,80.74
2022-12-25T09:24:39.138Z,80.79
2022-12-25T09:27:05.634Z,80.63
2022-12-25T09:29:32.189Z,80.42
2022-12-25T09:31:58.690Z,80.74
2022-12-25T09:34:25.208Z,80.44
2022-12-25T09:36:51.711Z,81.08
2022-12-25T09:39:18.232Z,80.53
2022-12-25T09:42:34.386Z,80.88
2022-12-25T09:45:10.822Z,81.10
2022-12-25T09:47:41.787Z,81.00
2022-12-25T09:50:13.871Z,80.92
2022-12-25T09:52:48.852Z,80.74
2022-12-25T09:55:26.727Z,80.21
2022-12-25T09:58:00.437Z,80.72
2022-12-25T10:00:38.074Z,80.59
2022-12-25T10:03:32.887Z,79.57
2022-12-25T10:06:06.248Z,79.37
2022-12-25T10:09:04.742Z,79.19
2022-12-25T10:12:13.030Z,78.53
2022-12-25T10:15:01.212Z,78.74
2022-12-25T10:18:07.780Z,77.83
2022-12-25T10:20:50.897Z,73.34
2022-12-25T10:23:30.533Z,72.67
2022-12-25T10:25:57.209Z,73.30
2022-12-25T10:28:33.147Z,72.61
2022-12-25T10:31:05.667Z,72.19
2022-12-25T10:33:32.196Z,73.03
2022-12-25T10:35:59.495Z,71.71
2022-12-25T10:38:26.051Z,71.63
2022-12-25T10:41:07.760Z,70.45
2022-12-25T10:43:38.716Z,70.95
2022-12-25T10:46:12.043Z,71.86
2022-12-25T10:48:42.980Z,72.37
2022-12-25T10:51:09.606Z,72.47
2022-12-25T10:53:42.781Z,71.74
2022-12-25T10:56:18.040Z,71.25
2022-12-25T10:58:45.065Z,71.53
2022-12-25T11:01:13.111Z,70.79
2022-12-25T11:03:43.955Z,70.65
2022-12-25T11:06:25.746Z,70.12
2022-12-25T11:08:56.649Z,68.32
2022-12-25T11:11:24.180Z,69.98
2022-12-25T11:13:54.685Z,69.26
2022-12-25T11:16:35.469Z,68.78
2022-12-25T11:19:02.755Z,69.10
2022-12-25T11:21:34.782Z,68.58
2022-12-25T11:24:04.389Z,68.81
2022-12-25T11:26:52.358Z,68.61
2022-12-25T11:29:36.508Z,67.96
2022-12-25T11:32:05.647Z,67.78
2022-12-25T11:34:45.081Z,67.81
2022-12-25T11:37:18.236Z,65.56
2022-12-25T11:39:45.026Z,66.96
2022-12-25T11:42:17.472Z,65.78
2022-12-25T11:44:51.884Z,64.90
2022-12-25T11:47:35.075Z,65.54
2022-12-25T11:50:25.749Z,62.61
2022-12-25T11:52:53.410Z,63.91
2022-12-25T11:55:43.166Z,62.48
2022-12-25T11:58:34.340Z,62.33
2022-12-25T12:01:04.830Z,63.58
2022-12-25T12:03:36.126Z,64.06
2022-12-25T12:06:30.268Z,62.01
2022-12-25T12:09:17.438Z,60.87
2022-12-25T12:11:53.497Z,60.14
2022-12-25T12:14:39.485Z,61.63
2022-12-25T12:17:12.275Z,61.19
2022-12-25T12:19:39.092Z,61.76
2022-12-25T12:22:05.961Z,60.57
2022-12-25T12:24:37.990Z,59.81
2022-12-25T12:27:17.503Z,59.72
2022-12-25T12:29:47.853Z,60.55
2022-12-25T12:32:35.257Z,59.32
2022-12-25T12:35:13.136Z,59.02
2022-12-25T12:37:41.164Z,58.46
2022-12-25T12:40:27.697Z,59.37
2022-12-25T12:42:54.699Z,59.57
2022-12-25T12:45:28.345Z,59.50
2022-12-25T12:47:55.428Z,56.73
2022-12-25T12:50:36.095Z,58.16
2022-12-25T12:53:24.197Z,59.30
2022-12-25T12:55:52.607Z,59.09
2022-12-25T12:58:33.459Z,57.58
2022-12-25T13:01:18.367Z,59.34
2022-12-25T13:04:06.408Z,60.56
2022-12-25T13:06:43.773Z,61.06
2022-12-25T13:09:28.184Z,60.77
2022-12-25T13:11:54.795Z,59.66
2022-12-25T13:14:23.713Z,60.68
2022-12-25T13:16:53.425Z,61.23
2022-12-25T13:19:25.898Z,58.51
2022-12-25T13:21:53.899Z,60.57
2022-12-25T13:24:26.644Z,60.07
2022-12-25T13:26:53.776Z,59.75
2022-12-25T13:29:34.470Z,62.03
2022-12-25T13:32:03.585Z,62.29
2022-12-25T13:34:38.340Z,62.47
2022-12-25T13:37:10.247Z,63.67
2022-12-25T13:39:39.459Z,63.33
2022-12-25T13:42:09.381Z,64.02
2022-12-25T13:44:47.773Z,63.81
2022-12-25T13:47:17.037Z,62.95
2022-12-25T13:49:43.740Z,63.49
2022-12-25T13:52:13.234Z,63.70
2022-12-25T13:54:40.046Z,65.29
2022-12-25T13:57:15.317Z,66.30
2022-12-25T13:59:44.314Z,67.58
2022-12-25T14:02:22.623Z,67.72
2022-12-25T14:04:49.202Z,68.97
2022-12-25T14:07:21.045Z,68.81
2022-12-25T14:09:52.241Z,68.30
2022-12-25T14:12:19.867Z,68.97
2022-12-25T14:14:46.755Z,69.86
2022-12-25T14:17:13.362Z,69.81
2022-12-25T14:19:40.051Z,70.30
2022-12-25T14:22:22.514Z,69.61
2022-12-25T14:24:49.344Z,69.84
2022-12-25T14:27:27.960Z,70.42
2022-12-25T14:29:56.643Z,69.47
2022-12-25T14:32:27.266Z,69.92
2022-12-25T14:34:59.542Z,69.26
2022-12-25T14:37:29.482Z,69.64
2022-12-25T14:39:57.660Z,69.13
2022-12-25T14:42:27.910Z,69.98
2022-12-25T14:44:59.723Z,71.01
2022-12-25T14:47:27.469Z,71.09
2022-12-25T14:49:54.629Z,71.98
2022-12-25T14:52:21.137Z,72.67
2022-12-25T14:55:01.154Z,72.53
2022-12-25T14:57:32.114Z,72.83
2022-12-25T15:00:01.748Z,71.89
2022-12-25T15:02:40.293Z,72.63
2022-12-25T15:05:25.153Z,72.94
2022-12-25T15:07:59.859Z,72.30
2022-12-25T15:10:59.016Z,72.63
2022-12-25T15:13:14.530Z,74.23
2022-12-25T15:15:53.333Z,73.82
2022-12-25T15:18:22.217Z,73.29
2022-12-25T15:20:54.876Z,73.78
2022-12-25T15:23:21.947Z,74.20
2022-12-25T15:25:50.939Z,74.26
2022-12-25T15:28:17.448Z,74.49
2022-12-25T15:30:44.212Z,74.02
2022-12-25T15:33:14.391Z,74.65
2022-12-25T15:35:41.274Z,74.89
2022-12-25T15:38:07.835Z,74.98
2022-12-25T15:40:34.652Z,74.33
2022-12-25T15:43:06.365Z,74.82
2022-12-25T15:45:38.242Z,75.80
2022-12-25T15:48:04.856Z,75.54
2022-12-25T15:50:32.687Z,75.93
2022-12-25T15:52:59.245Z,76.15
2022-12-25T15:55:25.839Z,75.88
2022-12-25T15:57:54.537Z,75.34
2022-12-25T16:00:23.181Z,75.11
2022-12-25T16:02:50.378Z,74.93
2022-12-25T16:05:17.050Z,75.05
2022-12-25T16:07:43.726Z,73.56
2022-12-25T16:10:14.890Z,73.64
2022-12-25T16:12:41.520Z,74.20
2022-12-25T16:15:10.562Z,72.65
2022-12-25T16:17:37.061Z,71.82
2022-12-25T16:20:04.531Z,70.94
2022-12-25T16:22:31.859Z,69.51
2022-12-25T16:24:58.359Z,67.35
2022-12-25T16:27:25.276Z,67.69
2022-12-25T16:29:52.114Z,66.86
2022-12-25T16:32:18.639Z,67.15
2022-12-25T16:34:45.533Z,67.89
2022-12-25T16:37:12.017Z,67.99
2022-12-25T16:39:38.626Z,67.27
2022-12-25T16:42:05.302Z,69.32
2022-12-25T16:44:31.857Z,70.37
2022-12-25T16:46:58.464Z,69.76
2022-12-25T16:49:25.088Z,69.30
2022-12-25T16:51:51.673Z,67.85
2022-12-25T16:54:18.262Z,67.16
2022-12-25T16:56:44.767Z,68.03
2022-12-25T16:59:11.567Z,68.04
2022-12-25T17:01:43.156Z,68.05
2022-12-25T17:04:10.301Z,68.08
2022-12-25T17:06:37.438Z,68.06
2022-12-25T17:09:04.705Z,66.82
2022-12-25T17:11:32.295Z,67.40
2022-12-25T17:14:02.103Z,68.48
2022-12-25T17:16:31.347Z,68.56
2022-12-25T17:19:04.385Z,68.08
2022-12-25T17:21:35.096Z,67.45
2022-12-25T17:24:03.980Z,68.31
2022-12-25T17:26:32.202Z,68.38
2022-12-25T17:28:58.934Z,68.74
2022-12-25T17:31:25.453Z,69.04
2022-12-25T17:33:52.084Z,69.16
2022-12-25T17:36:20.950Z,68.82
2022-12-25T17:38:48.212Z,67.23
2022-12-25T17:41:16.552Z,67.77
2022-12-25T17:43:45.478Z,66.10
2022-12-25T17:46:20.636Z,66.80
2022-12-25T17:48:47.670Z,67.88
2022-12-25T17:51:16.527Z,64.73
2022-12-25T17:53:45.489Z,66.32
2022-12-25T17:56:13.061Z,66.82
2022-12-25T17:58:39.799Z,66.74
2022-12-25T18:01:13.671Z,67.62
2022-12-25T18:03:40.259Z,67.37
2022-12-25T18:06:09.259Z,67.32
2022-12-25T18:08:39.626Z,66.72
2022-12-25T18:11:09.475Z,66.53
2022-12-25T18:13:37.800Z,67.73
2022-12-25T18:16:07.106Z,67.73
2022-12-25T18:18:34.843Z,68.70
2022-12-25T18:21:02.166Z,66.62
2022-12-25T18:23:29.442Z,66.80
2022-12-25T18:25:56.396Z,65.67
2022-12-25T18:28:23.066Z,67.24
2022-12-25T18:30:49.638Z,67.22
2022-12-25T18:33:16.191Z,67.40
2022-12-25T18:35:44.108Z,67.77
2022-12-25T18:38:11.558Z,68.08
2022-12-25T18:40:46.994Z,67.89
2022-12-25T18:43:14.176Z,65.77
2022-12-25T18:45:41.611Z,67.42
2022-12-25T18:48:10.273Z,66.45
2022-12-25T18:50:40.109Z,67.20
2022-12-25T18:53:07.211Z,67.70
2022-12-25T18:55:35.570Z,67.17
2022-12-25T18:58:02.570Z,67.77
2022-12-25T19:00:29.167Z,68.65
2022-12-25T19:02:58.340Z,68.61
2022-12-25T19:05:25.636Z,69.02
2022-12-25T19:07:52.199Z,69.50
2022-12-25T19:10:18.817Z,69.82
2022-12-25T19:12:45.361Z,70.14
2022-12-25T19:15:12.227Z,70.34
2022-12-25T19:17:38.818Z,70.28
2022-12-25T19:20:06.180Z,70.19
2022-12-25T19:22:32.800Z,67.65
2022-12-25T19:24:59.361Z,68.87
2022-12-25T19:27:25.940Z,68.73
2022-12-25T19:29:52.691Z,69.41
2022-12-25T19:32:19.277Z,69.52
2022-12-25T19:34:45.825Z,69.42
2022-12-25T19:37:12.318Z,69.58
2022-12-25T19:39:39.769Z,70.02
2022-12-25T19:42:06.342Z,69.81
2022-12-25T19:44:32.892Z,69.88
2022-12-25T19:46:59.398Z,70.28
2022-12-25T19:49:25.911Z,69.34
2022-12-25T19:51:52.789Z,69.61
2022-12-25T19:54:20.703Z,70.02
2022-12-25T19:56:48.559Z,70.01
2022-12-25T19:59:15.933Z,70.12
2022-12-25T20:01:43.098Z,69.60
2022-12-25T20:04:10.354Z,69.82
2022-12-25T20:06:39.609Z,69.88
2022-12-25T20:09:15.272Z,70.06
2022-12-25T20:11:43.074Z,69.47
2022-12-25T20:14:12.697Z,69.51
2022-12-25T20:16:40.536Z,69.67
2022-12-25T20:19:07.505Z,69.98
2022-12-25T20:21:34.450Z,69.98
2022-12-25T20:24:00.978Z,69.15
2022-12-25T20:26:30.694Z,69.61
2022-12-25T20:28:58.133Z,70.43
2022-12-25T20:31:27.550Z,69.44
2022-12-25T20:33:59.638Z,69.61
2022-12-25T20:36:31.210Z,69.02
2022-12-25T20:39:02.782Z,69.26
2022-12-25T20:41:30.006Z,69.51
2022-12-25T20:43:57.751Z,69.66
2022-12-25T20:46:25.507Z,69.65
2022-12-25T20:48:52.846Z,69.23
2022-12-25T20:51:22.578Z,69.72
2022-12-25T20:53:50.096Z,69.77
2022-12-25T20:56:18.757Z,69.72
2022-12-25T20:58:45.442Z,70.09
2022-12-25T21:01:15.842Z,70.92
2022-12-25T21:03:43.384Z,71.03
2022-12-25T21:06:10.600Z,70.39
2022-12-25T21:08:37.843Z,71.38
2022-12-25T21:11:08.378Z,70.98
2022-12-25T21:13:41.199Z,71.17
2022-12-25T21:16:11.143Z,70.95
2022-12-25T21:18:38.409Z,70.48
2022-12-25T21:21:07.328Z,71.14
2022-12-25T21:23:36.082Z,71.80
2022-12-25T21:26:29.670Z,72.36
2022-12-25T21:29:00.052Z,72.73
2022-12-25T21:31:26.732Z,73.15
2022-12-25T21:33:55.318Z,73.48
2022-12-25T21:36:27.205Z,73.61
2022-12-25T21:39:01.035Z,74.23
2022-12-25T21:41:30.480Z,73.39
2022-12-25T21:43:57.197Z,73.40
2022-12-25T21:46:24.742Z,73.81
2022-12-25T21:48:51.656Z,74.04
2022-12-25T21:51:40.116Z,73.96
2022-12-25T21:54:07.462Z,74.28
2022-12-25T21:56:43.051Z,74.37
2022-12-25T21:59:13.334Z,74.68
2022-12-25T22:01:40.133Z,74.96
2022-12-25T22:04:08.498Z,74.77
2022-12-25T22:06:54.355Z,75.49
2022-12-25T22:09:21.761Z,75.36
2022-12-25T22:12:07.272Z,75.19
2022-12-25T22:14:57.015Z,76.07
2022-12-25T22:17:45.475Z,75.52
2022-12-25T22:20:16.749Z,75.83
2022-12-25T22:22:43.391Z,75.70
2022-12-25T22:25:10.819Z,75.53
2022-12-25T22:27:39.381Z,75.52
2022-12-25T22:30:09.122Z,75.57
2022-12-25T22:32:36.067Z,75.35
2022-12-25T22:35:02.944Z,75.48
2022-12-25T22:37:29.779Z,74.94
2022-12-25T22:39:56.305Z,74.67
2022-12-25T22:42:22.918Z,74.49
2022-12-25T22:44:49.462Z,74.25
2022-12-25T22:47:16.063Z,74.52
2022-12-25T22:49:42.660Z,74.64
2022-12-25T22:52:09.817Z,74.98
2022-12-25T22:54:37.092Z,74.94
2022-12-25T22:57:04.132Z,75.18
2022-12-25T22:59:30.898Z,75.70
2022-12-25T23:01:57.603Z,75.38
2022-12-25T23:04:26.036Z,75.52
2022-12-25T23:06:52.564Z,75.34
2022-12-25T23:09:24.887Z,75.62
2022-12-25T23:11:51.607Z,76.09
2022-12-25T23:14:36.692Z,76.04
2022-12-25T23:17:03.244Z,75.97
2022-12-25T23:19:48.361Z,75.80
2022-12-25T23:22:34.529Z,75.78
2022-12-25T23:25:19.646Z,76.14
2022-12-25T23:27:46.378Z,76.10
2022-12-25T23:30:15.535Z,76.41
2022-12-25T23:32:44.493Z,76.03
2022-12-25T23:35:11.762Z,76.14
2022-12-25T23:37:38.578Z,76.88
2022-12-25T23:40:05.879Z,76.17
2022-12-25T23:42:32.571Z,77.03
2022-12-25T23:44:59.112Z,77.07
2022-12-25T23:47:25.682Z,77.41
2022-12-25T23:49:52.389Z,77.25
2022-12-25T23:52:18.961Z,77.51
2022-12-25T23:54:45.518Z,77.09
2022-12-25T23:57:16.578Z,76.70
2022-12-25T23:59:43.221Z,76.87
